<?xml version="1.0" encoding="UTF-8" standalone="no" ?>
<gpx xmlns="http://www.topografix.com/GPX/1/1" xmlns:xsi="http://www.w3.org/2001/XMLSchema-instance" xsi:schemaLocation="http://www.topografix.com/GPX/1/1 http://www.topografix.com/GPX/1/1/gpx.xsd" version="1.1" creator="VisuGPX - https://www.visugpx.com">
  <metadata>
    <name>Via podiensis Le Puy-Cahors</name>
  </metadata>
  <trk>
    <name><![CDATA[Via podiensis Le Puy-Cahors_8]]></name>
    <trkseg>
      <trkpt lat="44.72322" lon="3.28494">
        <ele>1050.59765625</ele>
        <time>2012-06-07T23:56:51Z</time>
      </trkpt>
      <trkpt lat="44.72263" lon="3.28447">
        <ele>1052.8203125</ele>
        <time>2012-06-07T23:57:11Z</time>
      </trkpt>
      <trkpt lat="44.7224" lon="3.28379">
        <ele>1050.015625</ele>
        <time>2012-06-07T23:57:31Z</time>
      </trkpt>
      <trkpt lat="44.72071" lon="3.28203">
        <ele>1036.80859375</ele>
        <time>2012-06-07T23:57:51Z</time>
      </trkpt>
      <trkpt lat="44.72029" lon="3.2822">
        <ele>1037.515625</ele>
        <time>2012-06-07T23:58:11Z</time>
      </trkpt>
      <trkpt lat="44.72014" lon="3.28213">
        <ele>1036.18359375</ele>
        <time>2012-06-07T23:58:31Z</time>
      </trkpt>
      <trkpt lat="44.71999" lon="3.28163">
        <ele>1030.375</ele>
        <time>2012-06-07T23:58:51Z</time>
      </trkpt>
      <trkpt lat="44.71888" lon="3.28214">
        <ele>1029.046875</ele>
        <time>2012-06-07T23:59:11Z</time>
      </trkpt>
      <trkpt lat="44.71834" lon="3.28263">
        <ele>1031.859375</ele>
        <time>2012-06-07T23:59:31Z</time>
      </trkpt>
      <trkpt lat="44.71761" lon="3.28368">
        <ele>1035.28125</ele>
        <time>2012-06-07T23:59:51Z</time>
      </trkpt>
      <trkpt lat="44.71703" lon="3.28368">
        <ele>1039.5234375</ele>
        <time>2012-06-08T00:00:11Z</time>
      </trkpt>
      <trkpt lat="44.71649" lon="3.28225">
        <ele>1050.33203125</ele>
        <time>2012-06-08T00:00:31Z</time>
      </trkpt>
      <trkpt lat="44.71495" lon="3.2807">
        <ele>1064.890625</ele>
        <time>2012-06-08T00:00:51Z</time>
      </trkpt>
      <trkpt lat="44.7145" lon="3.28022">
        <ele>1063.27734375</ele>
        <time>2012-06-08T00:01:11Z</time>
      </trkpt>
      <trkpt lat="44.71418" lon="3.27958">
        <ele>1061.25390625</ele>
        <time>2012-06-08T00:01:31Z</time>
      </trkpt>
      <trkpt lat="44.71421" lon="3.27794">
        <ele>1059.49609375</ele>
        <time>2012-06-08T00:01:51Z</time>
      </trkpt>
      <trkpt lat="44.71404" lon="3.27635">
        <ele>1060.55859375</ele>
        <time>2012-06-08T00:02:11Z</time>
      </trkpt>
      <trkpt lat="44.71357" lon="3.27526">
        <ele>1061.81640625</ele>
        <time>2012-06-08T00:02:31Z</time>
      </trkpt>
      <trkpt lat="44.7125" lon="3.27377">
        <ele>1060.06640625</ele>
        <time>2012-06-08T00:02:51Z</time>
      </trkpt>
      <trkpt lat="44.71174" lon="3.27291">
        <ele>1061.35546875</ele>
        <time>2012-06-08T00:03:11Z</time>
      </trkpt>
      <trkpt lat="44.71116" lon="3.27327">
        <ele>1060.04296875</ele>
        <time>2012-06-08T00:03:31Z</time>
      </trkpt>
      <trkpt lat="44.71058" lon="3.27378">
        <ele>1055.62109375</ele>
        <time>2012-06-08T00:03:51Z</time>
      </trkpt>
      <trkpt lat="44.71009" lon="3.27384">
        <ele>1054.0390625</ele>
        <time>2012-06-08T00:04:11Z</time>
      </trkpt>
      <trkpt lat="44.70937" lon="3.27441">
        <ele>1049.93359375</ele>
        <time>2012-06-08T00:04:31Z</time>
      </trkpt>
      <trkpt lat="44.70835" lon="3.27545">
        <ele>1043.19921875</ele>
        <time>2012-06-08T00:04:51Z</time>
      </trkpt>
      <trkpt lat="44.70811" lon="3.27488">
        <ele>1043.3125</ele>
        <time>2012-06-08T00:05:11Z</time>
      </trkpt>
      <trkpt lat="44.70829" lon="3.27471">
        <ele>1044.70703125</ele>
        <time>2012-06-08T00:05:31Z</time>
      </trkpt>
      <trkpt lat="44.70889" lon="3.2743">
        <ele>1050.3515625</ele>
        <time>2012-06-08T00:05:51Z</time>
      </trkpt>
      <trkpt lat="44.70963" lon="3.27369">
        <ele>1054.81640625</ele>
        <time>2012-06-08T00:06:11Z</time>
      </trkpt>
      <trkpt lat="44.71132" lon="3.27254">
        <ele>1062</ele>
        <time>2012-06-08T00:06:31Z</time>
      </trkpt>
      <trkpt lat="44.71022" lon="3.271">
        <ele>1062</ele>
        <time>2012-06-08T00:06:51Z</time>
      </trkpt>
      <trkpt lat="44.70986" lon="3.27047">
        <ele>1061</ele>
        <time>2012-06-08T00:07:11Z</time>
      </trkpt>
      <trkpt lat="44.70849" lon="3.26958">
        <ele>1057.1484375</ele>
        <time>2012-06-08T00:07:31Z</time>
      </trkpt>
      <trkpt lat="44.70677" lon="3.26916">
        <ele>1047.734375</ele>
        <time>2012-06-08T00:07:51Z</time>
      </trkpt>
      <trkpt lat="44.70532" lon="3.26833">
        <ele>1046.53515625</ele>
        <time>2012-06-08T00:08:11Z</time>
      </trkpt>
      <trkpt lat="44.70378" lon="3.26843">
        <ele>1045.0703125</ele>
        <time>2012-06-08T00:08:31Z</time>
      </trkpt>
      <trkpt lat="44.70187" lon="3.26814">
        <ele>1040.7578125</ele>
        <time>2012-06-08T00:08:51Z</time>
      </trkpt>
      <trkpt lat="44.70129" lon="3.26797">
        <ele>1038.7734375</ele>
        <time>2012-06-08T00:09:11Z</time>
      </trkpt>
      <trkpt lat="44.70114" lon="3.26745">
        <ele>1038.31640625</ele>
        <time>2012-06-08T00:09:31Z</time>
      </trkpt>
      <trkpt lat="44.7007" lon="3.26673">
        <ele>1035.296875</ele>
        <time>2012-06-08T00:09:51Z</time>
      </trkpt>
      <trkpt lat="44.69958" lon="3.26405">
        <ele>1022.015625</ele>
        <time>2012-06-08T00:10:11Z</time>
      </trkpt>
      <trkpt lat="44.69922" lon="3.26318">
        <ele>1018.5859375</ele>
        <time>2012-06-08T00:10:31Z</time>
      </trkpt>
      <trkpt lat="44.69853" lon="3.26255">
        <ele>1018</ele>
        <time>2012-06-08T00:10:51Z</time>
      </trkpt>
      <trkpt lat="44.69965" lon="3.26201">
        <ele>1018</ele>
        <time>2012-06-08T00:11:11Z</time>
      </trkpt>
      <trkpt lat="44.69996" lon="3.26142">
        <ele>1017.7578125</ele>
        <time>2012-06-08T00:11:31Z</time>
      </trkpt>
      <trkpt lat="44.69989" lon="3.26044">
        <ele>1018</ele>
        <time>2012-06-08T00:11:51Z</time>
      </trkpt>
      <trkpt lat="44.70027" lon="3.25935">
        <ele>1019.00390625</ele>
        <time>2012-06-08T00:12:11Z</time>
      </trkpt>
      <trkpt lat="44.70058" lon="3.25756">
        <ele>1020.92578125</ele>
        <time>2012-06-08T00:12:31Z</time>
      </trkpt>
      <trkpt lat="44.70091" lon="3.25664">
        <ele>1024.6640625</ele>
        <time>2012-06-08T00:12:51Z</time>
      </trkpt>
      <trkpt lat="44.70159" lon="3.25547">
        <ele>1027.7421875</ele>
        <time>2012-06-08T00:13:11Z</time>
      </trkpt>
      <trkpt lat="44.70221" lon="3.2548">
        <ele>1031.46484375</ele>
        <time>2012-06-08T00:13:31Z</time>
      </trkpt>
      <trkpt lat="44.70244" lon="3.25467">
        <ele>1032.68359375</ele>
        <time>2012-06-08T00:13:51Z</time>
      </trkpt>
      <trkpt lat="44.70267" lon="3.2543">
        <ele>1034.30859375</ele>
        <time>2012-06-08T00:14:11Z</time>
      </trkpt>
      <trkpt lat="44.70262" lon="3.25356">
        <ele>1032.95703125</ele>
        <time>2012-06-08T00:14:31Z</time>
      </trkpt>
      <trkpt lat="44.70295" lon="3.25273">
        <ele>1034.3359375</ele>
        <time>2012-06-08T00:14:51Z</time>
      </trkpt>
      <trkpt lat="44.70316" lon="3.25269">
        <ele>1036.15234375</ele>
        <time>2012-06-08T00:15:11Z</time>
      </trkpt>
      <trkpt lat="44.70364" lon="3.25289">
        <ele>1041.06640625</ele>
        <time>2012-06-08T00:15:31Z</time>
      </trkpt>
      <trkpt lat="44.70444" lon="3.25235">
        <ele>1047.05859375</ele>
        <time>2012-06-08T00:15:51Z</time>
      </trkpt>
      <trkpt lat="44.7046" lon="3.25216">
        <ele>1048.171875</ele>
        <time>2012-06-08T00:16:11Z</time>
      </trkpt>
      <trkpt lat="44.70521" lon="3.25181">
        <ele>1051.8203125</ele>
        <time>2012-06-08T00:16:31Z</time>
      </trkpt>
      <trkpt lat="44.70713" lon="3.24939">
        <ele>1062.4609375</ele>
        <time>2012-06-08T00:16:51Z</time>
      </trkpt>
      <trkpt lat="44.70843" lon="3.24709">
        <ele>1068.640625</ele>
        <time>2012-06-08T00:17:11Z</time>
      </trkpt>
      <trkpt lat="44.7091" lon="3.24643">
        <ele>1067.8828125</ele>
        <time>2012-06-08T00:17:31Z</time>
      </trkpt>
      <trkpt lat="44.70981" lon="3.24579">
        <ele>1067.3671875</ele>
        <time>2012-06-08T00:17:51Z</time>
      </trkpt>
      <trkpt lat="44.71067" lon="3.24443">
        <ele>1069.9765625</ele>
        <time>2012-06-08T00:18:11Z</time>
      </trkpt>
      <trkpt lat="44.71118" lon="3.24262">
        <ele>1069.65234375</ele>
        <time>2012-06-08T00:18:31Z</time>
      </trkpt>
      <trkpt lat="44.7116" lon="3.24169">
        <ele>1073.65625</ele>
        <time>2012-06-08T00:18:51Z</time>
      </trkpt>
      <trkpt lat="44.7126" lon="3.23795">
        <ele>1081.69921875</ele>
        <time>2012-06-08T00:19:11Z</time>
      </trkpt>
      <trkpt lat="44.71315" lon="3.23726">
        <ele>1081.703125</ele>
        <time>2012-06-08T00:19:31Z</time>
      </trkpt>
      <trkpt lat="44.71318" lon="3.23681">
        <ele>1083.46484375</ele>
        <time>2012-06-08T00:19:51Z</time>
      </trkpt>
      <trkpt lat="44.71299" lon="3.23628">
        <ele>1085.48828125</ele>
        <time>2012-06-08T00:20:11Z</time>
      </trkpt>
      <trkpt lat="44.71266" lon="3.2357">
        <ele>1086.65625</ele>
        <time>2012-06-08T00:20:31Z</time>
      </trkpt>
      <trkpt lat="44.7124" lon="3.23483">
        <ele>1087.95703125</ele>
        <time>2012-06-08T00:20:51Z</time>
      </trkpt>
      <trkpt lat="44.71238" lon="3.23331">
        <ele>1088.30859375</ele>
        <time>2012-06-08T00:21:11Z</time>
      </trkpt>
      <trkpt lat="44.71251" lon="3.23243">
        <ele>1088.34375</ele>
        <time>2012-06-08T00:21:31Z</time>
      </trkpt>
      <trkpt lat="44.71252" lon="3.23181">
        <ele>1086.41796875</ele>
        <time>2012-06-08T00:21:51Z</time>
      </trkpt>
      <trkpt lat="44.71228" lon="3.2311">
        <ele>1078.609375</ele>
        <time>2012-06-08T00:22:11Z</time>
      </trkpt>
      <trkpt lat="44.71215" lon="3.23046">
        <ele>1072.2109375</ele>
        <time>2012-06-08T00:22:31Z</time>
      </trkpt>
      <trkpt lat="44.71193" lon="3.23007">
        <ele>1070.0234375</ele>
        <time>2012-06-08T00:22:51Z</time>
      </trkpt>
      <trkpt lat="44.7117" lon="3.2299">
        <ele>1071.359375</ele>
        <time>2012-06-08T00:23:11Z</time>
      </trkpt>
      <trkpt lat="44.71153" lon="3.22951">
        <ele>1076.4609375</ele>
        <time>2012-06-08T00:23:31Z</time>
      </trkpt>
      <trkpt lat="44.71166" lon="3.22822">
        <ele>1087.23046875</ele>
        <time>2012-06-08T00:23:51Z</time>
      </trkpt>
      <trkpt lat="44.71156" lon="3.22799">
        <ele>1088.890625</ele>
        <time>2012-06-08T00:24:11Z</time>
      </trkpt>
      <trkpt lat="44.71083" lon="3.22498">
        <ele>1106.80078125</ele>
        <time>2012-06-08T00:24:31Z</time>
      </trkpt>
      <trkpt lat="44.71079" lon="3.22429">
        <ele>1112.34765625</ele>
        <time>2012-06-08T00:24:51Z</time>
      </trkpt>
      <trkpt lat="44.71103" lon="3.22394">
        <ele>1110.58203125</ele>
        <time>2012-06-08T00:25:11Z</time>
      </trkpt>
      <trkpt lat="44.71177" lon="3.22373">
        <ele>1107.99609375</ele>
        <time>2012-06-08T00:25:31Z</time>
      </trkpt>
      <trkpt lat="44.7122" lon="3.22376">
        <ele>1108.7578125</ele>
        <time>2012-06-08T00:25:51Z</time>
      </trkpt>
      <trkpt lat="44.71315" lon="3.22331">
        <ele>1111.05078125</ele>
        <time>2012-06-08T00:26:11Z</time>
      </trkpt>
      <trkpt lat="44.71327" lon="3.22306">
        <ele>1112.86328125</ele>
        <time>2012-06-08T00:26:31Z</time>
      </trkpt>
      <trkpt lat="44.71278" lon="3.22116">
        <ele>1123.7734375</ele>
        <time>2012-06-08T00:26:51Z</time>
      </trkpt>
      <trkpt lat="44.71227" lon="3.21913">
        <ele>1131.1015625</ele>
        <time>2012-06-08T00:27:11Z</time>
      </trkpt>
      <trkpt lat="44.71187" lon="3.21828">
        <ele>1136.3671875</ele>
        <time>2012-06-08T00:27:31Z</time>
      </trkpt>
      <trkpt lat="44.7119" lon="3.21636">
        <ele>1144.2109375</ele>
        <time>2012-06-08T00:27:51Z</time>
      </trkpt>
      <trkpt lat="44.71171" lon="3.21581">
        <ele>1144.4921875</ele>
        <time>2012-06-08T00:28:11Z</time>
      </trkpt>
      <trkpt lat="44.71115" lon="3.2148">
        <ele>1144.79296875</ele>
        <time>2012-06-08T00:28:31Z</time>
      </trkpt>
      <trkpt lat="44.71068" lon="3.21416">
        <ele>1146.47265625</ele>
        <time>2012-06-08T00:28:51Z</time>
      </trkpt>
      <trkpt lat="44.71046" lon="3.21363">
        <ele>1145.92578125</ele>
        <time>2012-06-08T00:29:11Z</time>
      </trkpt>
      <trkpt lat="44.71032" lon="3.2127">
        <ele>1141.7265625</ele>
        <time>2012-06-08T00:29:31Z</time>
      </trkpt>
      <trkpt lat="44.71" lon="3.21175">
        <ele>1139.46484375</ele>
        <time>2012-06-08T00:29:51Z</time>
      </trkpt>
      <trkpt lat="44.7099" lon="3.21092">
        <ele>1135.890625</ele>
        <time>2012-06-08T00:30:11Z</time>
      </trkpt>
      <trkpt lat="44.70963" lon="3.2101">
        <ele>1136.53515625</ele>
        <time>2012-06-08T00:30:31Z</time>
      </trkpt>
      <trkpt lat="44.70946" lon="3.20831">
        <ele>1136.5625</ele>
        <time>2012-06-08T00:30:51Z</time>
      </trkpt>
      <trkpt lat="44.70914" lon="3.20641">
        <ele>1129.29296875</ele>
        <time>2012-06-08T00:31:11Z</time>
      </trkpt>
      <trkpt lat="44.70854" lon="3.20521">
        <ele>1127.9609375</ele>
        <time>2012-06-08T00:31:31Z</time>
      </trkpt>
      <trkpt lat="44.70863" lon="3.20439">
        <ele>1127.88671875</ele>
        <time>2012-06-08T00:31:51Z</time>
      </trkpt>
      <trkpt lat="44.70818" lon="3.20339">
        <ele>1131.65625</ele>
        <time>2012-06-08T00:32:11Z</time>
      </trkpt>
      <trkpt lat="44.70742" lon="3.20252">
        <ele>1136.84375</ele>
        <time>2012-06-08T00:32:31Z</time>
      </trkpt>
      <trkpt lat="44.70735" lon="3.20143">
        <ele>1142.76171875</ele>
        <time>2012-06-08T00:32:51Z</time>
      </trkpt>
      <trkpt lat="44.70713" lon="3.20099">
        <ele>1145.515625</ele>
        <time>2012-06-08T00:33:11Z</time>
      </trkpt>
      <trkpt lat="44.70696" lon="3.20007">
        <ele>1151.35546875</ele>
        <time>2012-06-08T00:33:31Z</time>
      </trkpt>
      <trkpt lat="44.70663" lon="3.19927">
        <ele>1157.1875</ele>
        <time>2012-06-08T00:33:51Z</time>
      </trkpt>
      <trkpt lat="44.7066" lon="3.19877">
        <ele>1159.75</ele>
        <time>2012-06-08T00:34:11Z</time>
      </trkpt>
      <trkpt lat="44.70686" lon="3.19735">
        <ele>1166.93359375</ele>
        <time>2012-06-08T00:34:31Z</time>
      </trkpt>
      <trkpt lat="44.707" lon="3.19547">
        <ele>1173.80078125</ele>
        <time>2012-06-08T00:34:51Z</time>
      </trkpt>
      <trkpt lat="44.70698" lon="3.19437">
        <ele>1177.18359375</ele>
        <time>2012-06-08T00:35:11Z</time>
      </trkpt>
      <trkpt lat="44.70686" lon="3.19359">
        <ele>1177</ele>
        <time>2012-06-08T00:35:31Z</time>
      </trkpt>
      <trkpt lat="44.70694" lon="3.19045">
        <ele>1172.9765625</ele>
        <time>2012-06-08T00:35:51Z</time>
      </trkpt>
      <trkpt lat="44.70697" lon="3.1891">
        <ele>1172.890625</ele>
        <time>2012-06-08T00:36:11Z</time>
      </trkpt>
      <trkpt lat="44.70703" lon="3.18881">
        <ele>1173</ele>
        <time>2012-06-08T00:36:31Z</time>
      </trkpt>
      <trkpt lat="44.70629" lon="3.18742">
        <ele>1173.69921875</ele>
        <time>2012-06-08T00:36:51Z</time>
      </trkpt>
      <trkpt lat="44.70611" lon="3.1868">
        <ele>1171.51171875</ele>
        <time>2012-06-08T00:37:11Z</time>
      </trkpt>
      <trkpt lat="44.70425" lon="3.18145">
        <ele>1159.55078125</ele>
        <time>2012-06-08T00:37:31Z</time>
      </trkpt>
      <trkpt lat="44.704" lon="3.17904">
        <ele>1157.28125</ele>
        <time>2012-06-08T00:37:51Z</time>
      </trkpt>
      <trkpt lat="44.70293" lon="3.17686">
        <ele>1161.53515625</ele>
        <time>2012-06-08T00:38:11Z</time>
      </trkpt>
      <trkpt lat="44.70242" lon="3.1754">
        <ele>1164.86328125</ele>
        <time>2012-06-08T00:38:31Z</time>
      </trkpt>
      <trkpt lat="44.70232" lon="3.17474">
        <ele>1163.4375</ele>
        <time>2012-06-08T00:38:51Z</time>
      </trkpt>
      <trkpt lat="44.70239" lon="3.17349">
        <ele>1159.51171875</ele>
        <time>2012-06-08T00:39:11Z</time>
      </trkpt>
      <trkpt lat="44.70257" lon="3.17299">
        <ele>1159.78125</ele>
        <time>2012-06-08T00:39:31Z</time>
      </trkpt>
      <trkpt lat="44.70255" lon="3.17259">
        <ele>1160.5625</ele>
        <time>2012-06-08T00:39:51Z</time>
      </trkpt>
      <trkpt lat="44.70294" lon="3.17174">
        <ele>1160.84765625</ele>
        <time>2012-06-08T00:40:11Z</time>
      </trkpt>
      <trkpt lat="44.70319" lon="3.17097">
        <ele>1160</ele>
        <time>2012-06-08T00:40:31Z</time>
      </trkpt>
      <trkpt lat="44.70324" lon="3.17038">
        <ele>1160.26953125</ele>
        <time>2012-06-08T00:40:51Z</time>
      </trkpt>
      <trkpt lat="44.70347" lon="3.16937">
        <ele>1158.890625</ele>
        <time>2012-06-08T00:41:11Z</time>
      </trkpt>
      <trkpt lat="44.7035" lon="3.16848">
        <ele>1158.66796875</ele>
        <time>2012-06-08T00:41:31Z</time>
      </trkpt>
      <trkpt lat="44.70331" lon="3.1676">
        <ele>1158.390625</ele>
        <time>2012-06-08T00:41:51Z</time>
      </trkpt>
      <trkpt lat="44.70301" lon="3.16692">
        <ele>1157.9609375</ele>
        <time>2012-06-08T00:42:11Z</time>
      </trkpt>
      <trkpt lat="44.70252" lon="3.16654">
        <ele>1158.421875</ele>
        <time>2012-06-08T00:42:31Z</time>
      </trkpt>
      <trkpt lat="44.70233" lon="3.16606">
        <ele>1158</ele>
        <time>2012-06-08T00:42:51Z</time>
      </trkpt>
      <trkpt lat="44.70223" lon="3.16553">
        <ele>1158.140625</ele>
        <time>2012-06-08T00:43:11Z</time>
      </trkpt>
      <trkpt lat="44.70171" lon="3.16478">
        <ele>1161.625</ele>
        <time>2012-06-08T00:43:31Z</time>
      </trkpt>
      <trkpt lat="44.70145" lon="3.16369">
        <ele>1162.7109375</ele>
        <time>2012-06-08T00:43:51Z</time>
      </trkpt>
      <trkpt lat="44.70082" lon="3.1628">
        <ele>1166.03125</ele>
        <time>2012-06-08T00:44:11Z</time>
      </trkpt>
      <trkpt lat="44.7003" lon="3.16174">
        <ele>1166.078125</ele>
        <time>2012-06-08T00:44:31Z</time>
      </trkpt>
      <trkpt lat="44.70013" lon="3.16154">
        <ele>1165.4609375</ele>
        <time>2012-06-08T00:44:51Z</time>
      </trkpt>
      <trkpt lat="44.69945" lon="3.16101">
        <ele>1165.078125</ele>
        <time>2012-06-08T00:45:11Z</time>
      </trkpt>
      <trkpt lat="44.69849" lon="3.1604">
        <ele>1162.79296875</ele>
        <time>2012-06-08T00:45:31Z</time>
      </trkpt>
      <trkpt lat="44.69803" lon="3.16027">
        <ele>1163.85546875</ele>
        <time>2012-06-08T00:45:51Z</time>
      </trkpt>
      <trkpt lat="44.69765" lon="3.16046">
        <ele>1166.45703125</ele>
        <time>2012-06-08T00:46:11Z</time>
      </trkpt>
      <trkpt lat="44.69741" lon="3.16045">
        <ele>1167.953125</ele>
        <time>2012-06-08T00:46:31Z</time>
      </trkpt>
      <trkpt lat="44.69681" lon="3.15969">
        <ele>1167.49609375</ele>
        <time>2012-06-08T00:46:51Z</time>
      </trkpt>
      <trkpt lat="44.6966" lon="3.15954">
        <ele>1167.7421875</ele>
        <time>2012-06-08T00:47:11Z</time>
      </trkpt>
      <trkpt lat="44.69639" lon="3.15908">
        <ele>1165.17578125</ele>
        <time>2012-06-08T00:47:31Z</time>
      </trkpt>
      <trkpt lat="44.6959" lon="3.15842">
        <ele>1162.97265625</ele>
        <time>2012-06-08T00:47:51Z</time>
      </trkpt>
      <trkpt lat="44.69549" lon="3.15818">
        <ele>1162.578125</ele>
        <time>2012-06-08T00:48:11Z</time>
      </trkpt>
      <trkpt lat="44.69459" lon="3.15734">
        <ele>1161</ele>
        <time>2012-06-08T00:48:31Z</time>
      </trkpt>
      <trkpt lat="44.69395" lon="3.15654">
        <ele>1161.23046875</ele>
        <time>2012-06-08T00:48:51Z</time>
      </trkpt>
      <trkpt lat="44.69342" lon="3.15628">
        <ele>1161.8359375</ele>
        <time>2012-06-08T00:49:11Z</time>
      </trkpt>
      <trkpt lat="44.69321" lon="3.15578">
        <ele>1163.10546875</ele>
        <time>2012-06-08T00:49:31Z</time>
      </trkpt>
      <trkpt lat="44.69297" lon="3.15522">
        <ele>1165.05859375</ele>
        <time>2012-06-08T00:49:51Z</time>
      </trkpt>
      <trkpt lat="44.69215" lon="3.1543">
        <ele>1172.12890625</ele>
        <time>2012-06-08T00:50:11Z</time>
      </trkpt>
      <trkpt lat="44.68936" lon="3.15393">
        <ele>1179.52734375</ele>
        <time>2012-06-08T00:50:31Z</time>
      </trkpt>
      <trkpt lat="44.68891" lon="3.15289">
        <ele>1181.1796875</ele>
        <time>2012-06-08T00:50:51Z</time>
      </trkpt>
      <trkpt lat="44.68897" lon="3.15223">
        <ele>1179.66796875</ele>
        <time>2012-06-08T00:51:11Z</time>
      </trkpt>
      <trkpt lat="44.68868" lon="3.15164">
        <ele>1180.37109375</ele>
        <time>2012-06-08T00:51:31Z</time>
      </trkpt>
      <trkpt lat="44.68842" lon="3.15145">
        <ele>1182.0546875</ele>
        <time>2012-06-08T00:51:51Z</time>
      </trkpt>
      <trkpt lat="44.68766" lon="3.15031">
        <ele>1190.1484375</ele>
        <time>2012-06-08T00:52:11Z</time>
      </trkpt>
      <trkpt lat="44.68761" lon="3.14986">
        <ele>1192.29296875</ele>
        <time>2012-06-08T00:52:31Z</time>
      </trkpt>
      <trkpt lat="44.68768" lon="3.14921">
        <ele>1194.6328125</ele>
        <time>2012-06-08T00:52:51Z</time>
      </trkpt>
      <trkpt lat="44.68753" lon="3.14855">
        <ele>1194.6171875</ele>
        <time>2012-06-08T00:53:11Z</time>
      </trkpt>
      <trkpt lat="44.68749" lon="3.14777">
        <ele>1193.87890625</ele>
        <time>2012-06-08T00:53:31Z</time>
      </trkpt>
      <trkpt lat="44.68712" lon="3.14687">
        <ele>1192.3515625</ele>
        <time>2012-06-08T00:53:51Z</time>
      </trkpt>
      <trkpt lat="44.6867" lon="3.14631">
        <ele>1192.53125</ele>
        <time>2012-06-08T00:54:11Z</time>
      </trkpt>
      <trkpt lat="44.68624" lon="3.14548">
        <ele>1189.4453125</ele>
        <time>2012-06-08T00:54:31Z</time>
      </trkpt>
      <trkpt lat="44.68631" lon="3.14322">
        <ele>1181.89453125</ele>
        <time>2012-06-08T00:54:51Z</time>
      </trkpt>
      <trkpt lat="44.6861" lon="3.14183">
        <ele>1191.1328125</ele>
        <time>2012-06-08T00:55:11Z</time>
      </trkpt>
      <trkpt lat="44.68543" lon="3.1413">
        <ele>1198.078125</ele>
        <time>2012-06-08T00:55:31Z</time>
      </trkpt>
      <trkpt lat="44.6852" lon="3.14098">
        <ele>1200.33984375</ele>
        <time>2012-06-08T00:55:51Z</time>
      </trkpt>
      <trkpt lat="44.68453" lon="3.14041">
        <ele>1197.3671875</ele>
        <time>2012-06-08T00:56:11Z</time>
      </trkpt>
      <trkpt lat="44.68412" lon="3.139">
        <ele>1203.6875</ele>
        <time>2012-06-08T00:56:31Z</time>
      </trkpt>
      <trkpt lat="44.6843" lon="3.13862">
        <ele>1209.57421875</ele>
        <time>2012-06-08T00:56:51Z</time>
      </trkpt>
      <trkpt lat="44.68442" lon="3.13792">
        <ele>1215.5078125</ele>
        <time>2012-06-08T00:57:11Z</time>
      </trkpt>
      <trkpt lat="44.68396" lon="3.13653">
        <ele>1219.26953125</ele>
        <time>2012-06-08T00:57:31Z</time>
      </trkpt>
      <trkpt lat="44.68382" lon="3.13523">
        <ele>1216.94140625</ele>
        <time>2012-06-08T00:57:51Z</time>
      </trkpt>
      <trkpt lat="44.68389" lon="3.13373">
        <ele>1208.2890625</ele>
        <time>2012-06-08T00:58:11Z</time>
      </trkpt>
      <trkpt lat="44.68377" lon="3.1332">
        <ele>1206.21875</ele>
        <time>2012-06-08T00:58:31Z</time>
      </trkpt>
      <trkpt lat="44.68383" lon="3.13242">
        <ele>1197.703125</ele>
        <time>2012-06-08T00:58:51Z</time>
      </trkpt>
      <trkpt lat="44.68332" lon="3.13174">
        <ele>1195.12890625</ele>
        <time>2012-06-08T00:59:11Z</time>
      </trkpt>
      <trkpt lat="44.68326" lon="3.13076">
        <ele>1200.0390625</ele>
        <time>2012-06-08T00:59:31Z</time>
      </trkpt>
      <trkpt lat="44.68336" lon="3.13039">
        <ele>1202.3828125</ele>
        <time>2012-06-08T00:59:51Z</time>
      </trkpt>
      <trkpt lat="44.68326" lon="3.13">
        <ele>1206.8828125</ele>
        <time>2012-06-08T01:00:11Z</time>
      </trkpt>
      <trkpt lat="44.68338" lon="3.12922">
        <ele>1215.27734375</ele>
        <time>2012-06-08T01:00:31Z</time>
      </trkpt>
      <trkpt lat="44.68322" lon="3.12845">
        <ele>1221.76953125</ele>
        <time>2012-06-08T01:00:51Z</time>
      </trkpt>
      <trkpt lat="44.68285" lon="3.12782">
        <ele>1229.83984375</ele>
        <time>2012-06-08T01:01:11Z</time>
      </trkpt>
      <trkpt lat="44.68269" lon="3.12693">
        <ele>1237.8359375</ele>
        <time>2012-06-08T01:01:31Z</time>
      </trkpt>
      <trkpt lat="44.68246" lon="3.12638">
        <ele>1240.609375</ele>
        <time>2012-06-08T01:01:51Z</time>
      </trkpt>
      <trkpt lat="44.68238" lon="3.1251">
        <ele>1247.65234375</ele>
        <time>2012-06-08T01:02:11Z</time>
      </trkpt>
      <trkpt lat="44.68181" lon="3.12366">
        <ele>1249.48046875</ele>
        <time>2012-06-08T01:02:31Z</time>
      </trkpt>
      <trkpt lat="44.6812" lon="3.12359">
        <ele>1249.78515625</ele>
        <time>2012-06-08T01:02:51Z</time>
      </trkpt>
      <trkpt lat="44.68047" lon="3.12279">
        <ele>1244.56640625</ele>
        <time>2012-06-08T01:03:11Z</time>
      </trkpt>
      <trkpt lat="44.6799" lon="3.12177">
        <ele>1235.984375</ele>
        <time>2012-06-08T01:03:31Z</time>
      </trkpt>
      <trkpt lat="44.67987" lon="3.12068">
        <ele>1229.37109375</ele>
        <time>2012-06-08T01:03:51Z</time>
      </trkpt>
      <trkpt lat="44.68049" lon="3.1201">
        <ele>1232.578125</ele>
        <time>2012-06-08T01:04:11Z</time>
      </trkpt>
      <trkpt lat="44.68023" lon="3.1195">
        <ele>1230.5078125</ele>
        <time>2012-06-08T01:04:31Z</time>
      </trkpt>
      <trkpt lat="44.67878" lon="3.11814">
        <ele>1215.34375</ele>
        <time>2012-06-08T01:04:51Z</time>
      </trkpt>
      <trkpt lat="44.67825" lon="3.11674">
        <ele>1202.31640625</ele>
        <time>2012-06-08T01:05:11Z</time>
      </trkpt>
      <trkpt lat="44.67841" lon="3.11616">
        <ele>1199.55859375</ele>
        <time>2012-06-08T01:05:31Z</time>
      </trkpt>
      <trkpt lat="44.67851" lon="3.11529">
        <ele>1194.44140625</ele>
        <time>2012-06-08T01:05:51Z</time>
      </trkpt>
      <trkpt lat="44.67792" lon="3.11284">
        <ele>1186.5</ele>
        <time>2012-06-08T01:06:11Z</time>
      </trkpt>
      <trkpt lat="44.67773" lon="3.11111">
        <ele>1183.6796875</ele>
        <time>2012-06-08T01:06:31Z</time>
      </trkpt>
      <trkpt lat="44.67728" lon="3.11018">
        <ele>1181.4609375</ele>
        <time>2012-06-08T01:06:51Z</time>
      </trkpt>
      <trkpt lat="44.6761" lon="3.10958">
        <ele>1187.06640625</ele>
        <time>2012-06-08T01:07:11Z</time>
      </trkpt>
      <trkpt lat="44.67527" lon="3.10949">
        <ele>1192.03515625</ele>
        <time>2012-06-08T01:07:31Z</time>
      </trkpt>
      <trkpt lat="44.67291" lon="3.10753">
        <ele>1192.50390625</ele>
        <time>2012-06-08T01:07:51Z</time>
      </trkpt>
      <trkpt lat="44.67132" lon="3.10606">
        <ele>1195.875</ele>
        <time>2012-06-08T01:08:11Z</time>
      </trkpt>
      <trkpt lat="44.67064" lon="3.10504">
        <ele>1193.6953125</ele>
        <time>2012-06-08T01:08:31Z</time>
      </trkpt>
      <trkpt lat="44.66993" lon="3.10435">
        <ele>1192.93359375</ele>
        <time>2012-06-08T01:08:51Z</time>
      </trkpt>
      <trkpt lat="44.66883" lon="3.10407">
        <ele>1184.6484375</ele>
        <time>2012-06-08T01:09:11Z</time>
      </trkpt>
      <trkpt lat="44.66868" lon="3.1039">
        <ele>1183.4375</ele>
        <time>2012-06-08T01:09:31Z</time>
      </trkpt>
      <trkpt lat="44.66852" lon="3.10224">
        <ele>1178.97265625</ele>
        <time>2012-06-08T01:09:51Z</time>
      </trkpt>
      <trkpt lat="44.66854" lon="3.10159">
        <ele>1179.1328125</ele>
        <time>2012-06-08T01:10:11Z</time>
      </trkpt>
      <trkpt lat="44.66827" lon="3.10096">
        <ele>1173.7109375</ele>
        <time>2012-06-08T01:10:31Z</time>
      </trkpt>
      <trkpt lat="44.66785" lon="3.10065">
        <ele>1169.59375</ele>
        <time>2012-06-08T01:10:51Z</time>
      </trkpt>
      <trkpt lat="44.66719" lon="3.10058">
        <ele>1165.71484375</ele>
        <time>2012-06-08T01:11:11Z</time>
      </trkpt>
      <trkpt lat="44.66674" lon="3.10058">
        <ele>1163.296875</ele>
        <time>2012-06-08T01:11:31Z</time>
      </trkpt>
      <trkpt lat="44.66575" lon="3.1">
        <ele>1157</ele>
        <time>2012-06-08T01:11:51Z</time>
      </trkpt>
      <trkpt lat="44.66462" lon="3.09899">
        <ele>1156</ele>
        <time>2012-06-08T01:12:11Z</time>
      </trkpt>
      <trkpt lat="44.66364" lon="3.09786">
        <ele>1157.93359375</ele>
        <time>2012-06-08T01:12:31Z</time>
      </trkpt>
      <trkpt lat="44.66311" lon="3.09676">
        <ele>1157.98828125</ele>
        <time>2012-06-08T01:12:51Z</time>
      </trkpt>
      <trkpt lat="44.66169" lon="3.09489">
        <ele>1158</ele>
        <time>2012-06-08T01:13:11Z</time>
      </trkpt>
      <trkpt lat="44.66039" lon="3.09363">
        <ele>1151.86328125</ele>
        <time>2012-06-08T01:13:31Z</time>
      </trkpt>
      <trkpt lat="44.65781" lon="3.09183">
        <ele>1154.3046875</ele>
        <time>2012-06-08T01:13:51Z</time>
      </trkpt>
      <trkpt lat="44.65632" lon="3.09083">
        <ele>1154.078125</ele>
        <time>2012-06-08T01:14:11Z</time>
      </trkpt>
      <trkpt lat="44.65553" lon="3.09067">
        <ele>1154.80078125</ele>
        <time>2012-06-08T01:14:31Z</time>
      </trkpt>
      <trkpt lat="44.65506" lon="3.09037">
        <ele>1156.7265625</ele>
        <time>2012-06-08T01:14:51Z</time>
      </trkpt>
      <trkpt lat="44.65517" lon="3.08931">
        <ele>1158.83203125</ele>
        <time>2012-06-08T01:15:11Z</time>
      </trkpt>
      <trkpt lat="44.6548" lon="3.08842">
        <ele>1160</ele>
        <time>2012-06-08T01:15:31Z</time>
      </trkpt>
      <trkpt lat="44.65519" lon="3.08782">
        <ele>1161.71484375</ele>
        <time>2012-06-08T01:15:51Z</time>
      </trkpt>
      <trkpt lat="44.6552" lon="3.08754">
        <ele>1162.7265625</ele>
        <time>2012-06-08T01:16:11Z</time>
      </trkpt>
      <trkpt lat="44.65542" lon="3.08709">
        <ele>1165.15625</ele>
        <time>2012-06-08T01:16:31Z</time>
      </trkpt>
      <trkpt lat="44.6559" lon="3.0855">
        <ele>1170.203125</ele>
        <time>2012-06-08T01:16:51Z</time>
      </trkpt>
      <trkpt lat="44.65647" lon="3.08183">
        <ele>1179.9140625</ele>
        <time>2012-06-08T01:17:11Z</time>
      </trkpt>
      <trkpt lat="44.65651" lon="3.08125">
        <ele>1180.375</ele>
        <time>2012-06-08T01:17:31Z</time>
      </trkpt>
      <trkpt lat="44.65678" lon="3.08014">
        <ele>1182.359375</ele>
        <time>2012-06-08T01:17:51Z</time>
      </trkpt>
      <trkpt lat="44.65671" lon="3.07927">
        <ele>1184.1171875</ele>
        <time>2012-06-08T01:18:11Z</time>
      </trkpt>
      <trkpt lat="44.65654" lon="3.07882">
        <ele>1183.71484375</ele>
        <time>2012-06-08T01:18:31Z</time>
      </trkpt>
      <trkpt lat="44.65655" lon="3.07726">
        <ele>1187.59375</ele>
        <time>2012-06-08T01:18:51Z</time>
      </trkpt>
      <trkpt lat="44.65693" lon="3.07597">
        <ele>1192.6640625</ele>
        <time>2012-06-08T01:19:11Z</time>
      </trkpt>
      <trkpt lat="44.65741" lon="3.07505">
        <ele>1197.71484375</ele>
        <time>2012-06-08T01:19:31Z</time>
      </trkpt>
      <trkpt lat="44.65758" lon="3.07436">
        <ele>1202.3515625</ele>
        <time>2012-06-08T01:19:51Z</time>
      </trkpt>
      <trkpt lat="44.65767" lon="3.07351">
        <ele>1208.7734375</ele>
        <time>2012-06-08T01:20:11Z</time>
      </trkpt>
      <trkpt lat="44.65789" lon="3.07309">
        <ele>1211.76171875</ele>
        <time>2012-06-08T01:20:31Z</time>
      </trkpt>
      <trkpt lat="44.65786" lon="3.07255">
        <ele>1211.796875</ele>
        <time>2012-06-08T01:20:51Z</time>
      </trkpt>
      <trkpt lat="44.65735" lon="3.07097">
        <ele>1210.859375</ele>
        <time>2012-06-08T01:21:11Z</time>
      </trkpt>
      <trkpt lat="44.65734" lon="3.07018">
        <ele>1210.6171875</ele>
        <time>2012-06-08T01:21:31Z</time>
      </trkpt>
      <trkpt lat="44.65766" lon="3.06895">
        <ele>1209.953125</ele>
        <time>2012-06-08T01:21:51Z</time>
      </trkpt>
      <trkpt lat="44.6578" lon="3.06801">
        <ele>1206.97265625</ele>
        <time>2012-06-08T01:22:11Z</time>
      </trkpt>
      <trkpt lat="44.65848" lon="3.06723">
        <ele>1193.01171875</ele>
        <time>2012-06-08T01:22:31Z</time>
      </trkpt>
      <trkpt lat="44.65897" lon="3.06697">
        <ele>1189.85546875</ele>
        <time>2012-06-08T01:22:51Z</time>
      </trkpt>
      <trkpt lat="44.65898" lon="3.06654">
        <ele>1189.27734375</ele>
        <time>2012-06-08T01:23:11Z</time>
      </trkpt>
      <trkpt lat="44.65896" lon="3.0661">
        <ele>1189.5078125</ele>
        <time>2012-06-08T01:23:31Z</time>
      </trkpt>
      <trkpt lat="44.65907" lon="3.06535">
        <ele>1192.23046875</ele>
        <time>2012-06-08T01:23:51Z</time>
      </trkpt>
      <trkpt lat="44.65889" lon="3.06301">
        <ele>1202.46875</ele>
        <time>2012-06-08T01:24:11Z</time>
      </trkpt>
      <trkpt lat="44.65857" lon="3.06217">
        <ele>1207.671875</ele>
        <time>2012-06-08T01:24:31Z</time>
      </trkpt>
      <trkpt lat="44.65818" lon="3.0608">
        <ele>1214.25</ele>
        <time>2012-06-08T01:24:51Z</time>
      </trkpt>
      <trkpt lat="44.65784" lon="3.06015">
        <ele>1216.0703125</ele>
        <time>2012-06-08T01:25:11Z</time>
      </trkpt>
      <trkpt lat="44.65741" lon="3.05878">
        <ele>1215.27734375</ele>
        <time>2012-06-08T01:25:31Z</time>
      </trkpt>
      <trkpt lat="44.65742" lon="3.05794">
        <ele>1213.81640625</ele>
        <time>2012-06-08T01:25:51Z</time>
      </trkpt>
      <trkpt lat="44.65852" lon="3.05644">
        <ele>1204.45703125</ele>
        <time>2012-06-08T01:26:11Z</time>
      </trkpt>
      <trkpt lat="44.65852" lon="3.05591">
        <ele>1202</ele>
        <time>2012-06-08T01:26:31Z</time>
      </trkpt>
      <trkpt lat="44.65867" lon="3.05512">
        <ele>1201.84765625</ele>
        <time>2012-06-08T01:26:51Z</time>
      </trkpt>
      <trkpt lat="44.65902" lon="3.05412">
        <ele>1196.171875</ele>
        <time>2012-06-08T01:27:11Z</time>
      </trkpt>
      <trkpt lat="44.65933" lon="3.05359">
        <ele>1191.67578125</ele>
        <time>2012-06-08T01:27:31Z</time>
      </trkpt>
      <trkpt lat="44.65943" lon="3.05301">
        <ele>1188.09765625</ele>
        <time>2012-06-08T01:27:51Z</time>
      </trkpt>
      <trkpt lat="44.65922" lon="3.05209">
        <ele>1186.859375</ele>
        <time>2012-06-08T01:28:11Z</time>
      </trkpt>
      <trkpt lat="44.66056" lon="3.05063">
        <ele>1184.2578125</ele>
        <time>2012-06-08T01:28:31Z</time>
      </trkpt>
      <trkpt lat="44.66164" lon="3.04931">
        <ele>1177.5859375</ele>
        <time>2012-06-08T01:28:51Z</time>
      </trkpt>
      <trkpt lat="44.66164" lon="3.04872">
        <ele>1176.796875</ele>
        <time>2012-06-08T01:29:11Z</time>
      </trkpt>
      <trkpt lat="44.66183" lon="3.0481">
        <ele>1173.4609375</ele>
        <time>2012-06-08T01:29:31Z</time>
      </trkpt>
      <trkpt lat="44.66192" lon="3.04715">
        <ele>1174.5078125</ele>
        <time>2012-06-08T01:29:51Z</time>
      </trkpt>
      <trkpt lat="44.66217" lon="3.04659">
        <ele>1177.3515625</ele>
        <time>2012-06-08T01:30:11Z</time>
      </trkpt>
      <trkpt lat="44.66243" lon="3.04676">
        <ele>1177.6953125</ele>
        <time>2012-06-08T01:30:31Z</time>
      </trkpt>
      <trkpt lat="44.6626" lon="3.04665">
        <ele>1178.890625</ele>
        <time>2012-06-08T01:30:51Z</time>
      </trkpt>
      <trkpt lat="44.66261" lon="3.04665">
        <ele>1178.97265625</ele>
      </trkpt>
      <trkpt lat="44.66263" lon="3.04647">
        <ele>1179.44921875</ele>
      </trkpt>
      <trkpt lat="44.66262" lon="3.0465">
        <ele>1179.3515625</ele>
        <time>2012-06-07T17:58:08Z</time>
      </trkpt>
      <trkpt lat="44.66267" lon="3.04465">
        <ele>1179</ele>
        <time>2012-06-07T17:58:28Z</time>
      </trkpt>
      <trkpt lat="44.66258" lon="3.04369">
        <ele>1180.28125</ele>
        <time>2012-06-07T17:58:48Z</time>
      </trkpt>
      <trkpt lat="44.66247" lon="3.04333">
        <ele>1180.86328125</ele>
        <time>2012-06-07T17:59:08Z</time>
      </trkpt>
      <trkpt lat="44.66202" lon="3.04261">
        <ele>1180.9296875</ele>
        <time>2012-06-07T17:59:28Z</time>
      </trkpt>
      <trkpt lat="44.66033" lon="3.04015">
        <ele>1184.09765625</ele>
        <time>2012-06-07T17:59:48Z</time>
      </trkpt>
      <trkpt lat="44.66034" lon="3.04005">
        <ele>1185.21875</ele>
        <time>2012-06-07T18:00:08Z</time>
      </trkpt>
      <trkpt lat="44.65977" lon="3.03938">
        <ele>1197.75</ele>
        <time>2012-06-07T18:00:28Z</time>
      </trkpt>
      <trkpt lat="44.6598" lon="3.03915">
        <ele>1200.9375</ele>
        <time>2012-06-07T18:00:48Z</time>
      </trkpt>
      <trkpt lat="44.6603" lon="3.03873">
        <ele>1203.6328125</ele>
        <time>2012-06-07T18:01:08Z</time>
      </trkpt>
      <trkpt lat="44.6603" lon="3.03854">
        <ele>1205.12109375</ele>
        <time>2012-06-07T18:01:28Z</time>
      </trkpt>
      <trkpt lat="44.65967" lon="3.03726">
        <ele>1210.3984375</ele>
        <time>2012-06-07T18:01:48Z</time>
      </trkpt>
      <trkpt lat="44.65913" lon="3.03553">
        <ele>1212.17578125</ele>
        <time>2012-06-07T18:02:08Z</time>
      </trkpt>
      <trkpt lat="44.65855" lon="3.03393">
        <ele>1215.296875</ele>
        <time>2012-06-07T18:02:28Z</time>
      </trkpt>
      <trkpt lat="44.65821" lon="3.03264">
        <ele>1216.65625</ele>
        <time>2012-06-07T18:02:48Z</time>
      </trkpt>
      <trkpt lat="44.65818" lon="3.03174">
        <ele>1214.56640625</ele>
        <time>2012-06-07T18:03:08Z</time>
      </trkpt>
      <trkpt lat="44.65823" lon="3.03083">
        <ele>1211.65234375</ele>
        <time>2012-06-07T18:03:28Z</time>
      </trkpt>
      <trkpt lat="44.65799" lon="3.0295">
        <ele>1206.9765625</ele>
        <time>2012-06-07T18:03:48Z</time>
      </trkpt>
      <trkpt lat="44.65715" lon="3.02816">
        <ele>1207.5859375</ele>
        <time>2012-06-07T18:04:08Z</time>
      </trkpt>
      <trkpt lat="44.65717" lon="3.02777">
        <ele>1207.8203125</ele>
        <time>2012-06-07T18:04:28Z</time>
      </trkpt>
      <trkpt lat="44.65691" lon="3.02641">
        <ele>1220.63671875</ele>
        <time>2012-06-07T18:04:48Z</time>
      </trkpt>
      <trkpt lat="44.65656" lon="3.02591">
        <ele>1223.35546875</ele>
        <time>2012-06-07T18:05:08Z</time>
      </trkpt>
      <trkpt lat="44.65617" lon="3.02509">
        <ele>1229.5</ele>
        <time>2012-06-07T18:05:28Z</time>
      </trkpt>
      <trkpt lat="44.65608" lon="3.02393">
        <ele>1238.43359375</ele>
        <time>2012-06-07T18:05:48Z</time>
      </trkpt>
      <trkpt lat="44.65575" lon="3.02333">
        <ele>1243.90234375</ele>
        <time>2012-06-07T18:06:08Z</time>
      </trkpt>
      <trkpt lat="44.65571" lon="3.02212">
        <ele>1245.921875</ele>
        <time>2012-06-07T18:06:28Z</time>
      </trkpt>
      <trkpt lat="44.65561" lon="3.02168">
        <ele>1247.7265625</ele>
        <time>2012-06-07T18:06:48Z</time>
      </trkpt>
      <trkpt lat="44.65565" lon="3.02115">
        <ele>1245.16796875</ele>
        <time>2012-06-07T18:07:08Z</time>
      </trkpt>
      <trkpt lat="44.65591" lon="3.02036">
        <ele>1237.203125</ele>
        <time>2012-06-07T18:07:28Z</time>
      </trkpt>
      <trkpt lat="44.65587" lon="3.02002">
        <ele>1236.34765625</ele>
        <time>2012-06-07T18:07:48Z</time>
      </trkpt>
      <trkpt lat="44.65554" lon="3.01892">
        <ele>1232.19140625</ele>
        <time>2012-06-07T18:08:08Z</time>
      </trkpt>
      <trkpt lat="44.65534" lon="3.01728">
        <ele>1226.828125</ele>
        <time>2012-06-07T18:08:28Z</time>
      </trkpt>
      <trkpt lat="44.65534" lon="3.0165">
        <ele>1221.22265625</ele>
        <time>2012-06-07T18:08:48Z</time>
      </trkpt>
      <trkpt lat="44.65472" lon="3.01555">
        <ele>1219.48046875</ele>
        <time>2012-06-07T18:09:08Z</time>
      </trkpt>
      <trkpt lat="44.65455" lon="3.01472">
        <ele>1216.7265625</ele>
        <time>2012-06-07T18:09:28Z</time>
      </trkpt>
      <trkpt lat="44.65472" lon="3.01415">
        <ele>1215.53515625</ele>
        <time>2012-06-07T18:09:48Z</time>
      </trkpt>
      <trkpt lat="44.65484" lon="3.01381">
        <ele>1215.8828125</ele>
        <time>2012-06-07T18:10:08Z</time>
      </trkpt>
      <trkpt lat="44.65461" lon="3.01319">
        <ele>1218.421875</ele>
        <time>2012-06-07T18:10:28Z</time>
      </trkpt>
      <trkpt lat="44.65427" lon="3.01198">
        <ele>1228.75390625</ele>
        <time>2012-06-07T18:10:48Z</time>
      </trkpt>
      <trkpt lat="44.65387" lon="3.01117">
        <ele>1232.2421875</ele>
        <time>2012-06-07T18:11:08Z</time>
      </trkpt>
      <trkpt lat="44.65374" lon="3.01057">
        <ele>1236.48046875</ele>
        <time>2012-06-07T18:11:28Z</time>
      </trkpt>
      <trkpt lat="44.65397" lon="3.00911">
        <ele>1250.546875</ele>
        <time>2012-06-07T18:11:48Z</time>
      </trkpt>
      <trkpt lat="44.65395" lon="3.00884">
        <ele>1253.25</ele>
        <time>2012-06-07T18:12:08Z</time>
      </trkpt>
      <trkpt lat="44.65408" lon="3.0086">
        <ele>1257.16015625</ele>
        <time>2012-06-07T18:12:28Z</time>
      </trkpt>
      <trkpt lat="44.65395" lon="3.00775">
        <ele>1263.046875</ele>
        <time>2012-06-07T18:12:48Z</time>
      </trkpt>
      <trkpt lat="44.65399" lon="3.00734">
        <ele>1265.90625</ele>
        <time>2012-06-07T18:13:08Z</time>
      </trkpt>
      <trkpt lat="44.65331" lon="3.00611">
        <ele>1269.44921875</ele>
        <time>2012-06-07T18:13:28Z</time>
      </trkpt>
      <trkpt lat="44.65271" lon="3.0058">
        <ele>1272.6796875</ele>
        <time>2012-06-07T18:13:48Z</time>
      </trkpt>
      <trkpt lat="44.6521" lon="3.00583">
        <ele>1275.08984375</ele>
        <time>2012-06-07T18:14:08Z</time>
      </trkpt>
      <trkpt lat="44.65137" lon="3.00564">
        <ele>1282.4453125</ele>
        <time>2012-06-07T18:14:28Z</time>
      </trkpt>
      <trkpt lat="44.65104" lon="3.00573">
        <ele>1283.6875</ele>
        <time>2012-06-07T18:14:48Z</time>
      </trkpt>
      <trkpt lat="44.65011" lon="3.00574">
        <ele>1284.578125</ele>
        <time>2012-06-07T18:15:08Z</time>
      </trkpt>
      <trkpt lat="44.64986" lon="3.00554">
        <ele>1285.79296875</ele>
        <time>2012-06-07T18:15:28Z</time>
      </trkpt>
      <trkpt lat="44.64946" lon="3.0049">
        <ele>1290.26953125</ele>
        <time>2012-06-07T18:15:48Z</time>
      </trkpt>
      <trkpt lat="44.6488" lon="3.00233">
        <ele>1291.4609375</ele>
        <time>2012-06-07T18:16:08Z</time>
      </trkpt>
      <trkpt lat="44.64839" lon="2.99987">
        <ele>1286.76953125</ele>
        <time>2012-06-07T18:16:28Z</time>
      </trkpt>
      <trkpt lat="44.6485" lon="2.99889">
        <ele>1291.01171875</ele>
        <time>2012-06-07T18:16:48Z</time>
      </trkpt>
      <trkpt lat="44.64841" lon="2.99857">
        <ele>1291.0546875</ele>
        <time>2012-06-07T18:17:08Z</time>
      </trkpt>
      <trkpt lat="44.64825" lon="2.99816">
        <ele>1290.55078125</ele>
        <time>2012-06-07T18:17:28Z</time>
      </trkpt>
      <trkpt lat="44.64845" lon="2.9956">
        <ele>1297.1953125</ele>
        <time>2012-06-07T18:17:48Z</time>
      </trkpt>
      <trkpt lat="44.64829" lon="2.99296">
        <ele>1301.82421875</ele>
        <time>2012-06-07T18:18:08Z</time>
      </trkpt>
      <trkpt lat="44.64811" lon="2.99247">
        <ele>1301.0625</ele>
        <time>2012-06-07T18:18:28Z</time>
      </trkpt>
      <trkpt lat="44.64815" lon="2.99193">
        <ele>1303.82421875</ele>
        <time>2012-06-07T18:18:48Z</time>
      </trkpt>
      <trkpt lat="44.64748" lon="2.9903">
        <ele>1310.59765625</ele>
        <time>2012-06-07T18:19:08Z</time>
      </trkpt>
      <trkpt lat="44.64581" lon="2.98917">
        <ele>1303.54296875</ele>
        <time>2012-06-07T18:19:28Z</time>
      </trkpt>
      <trkpt lat="44.64531" lon="2.98867">
        <ele>1305.6875</ele>
        <time>2012-06-07T18:19:48Z</time>
      </trkpt>
      <trkpt lat="44.64451" lon="2.98764">
        <ele>1316.70703125</ele>
        <time>2012-06-07T18:20:08Z</time>
      </trkpt>
      <trkpt lat="44.6444" lon="2.98728">
        <ele>1318.24609375</ele>
        <time>2012-06-07T18:20:28Z</time>
      </trkpt>
      <trkpt lat="44.64416" lon="2.98639">
        <ele>1317.453125</ele>
        <time>2012-06-07T18:20:48Z</time>
      </trkpt>
      <trkpt lat="44.64359" lon="2.98651">
        <ele>1314.6640625</ele>
        <time>2012-06-07T18:21:08Z</time>
      </trkpt>
      <trkpt lat="44.6427" lon="2.98702">
        <ele>1307.484375</ele>
        <time>2012-06-07T18:21:28Z</time>
      </trkpt>
      <trkpt lat="44.64092" lon="2.98823">
        <ele>1308.27734375</ele>
        <time>2012-06-07T18:21:48Z</time>
      </trkpt>
      <trkpt lat="44.63903" lon="2.98959">
        <ele>1327.140625</ele>
        <time>2012-06-07T18:22:08Z</time>
      </trkpt>
      <trkpt lat="44.63874" lon="2.98999">
        <ele>1330.23828125</ele>
        <time>2012-06-07T18:22:28Z</time>
      </trkpt>
      <trkpt lat="44.63791" lon="2.99064">
        <ele>1341</ele>
        <time>2012-06-07T18:22:48Z</time>
      </trkpt>
      <trkpt lat="44.63746" lon="2.99092">
        <ele>1348.68359375</ele>
        <time>2012-06-07T18:23:08Z</time>
      </trkpt>
      <trkpt lat="44.63586" lon="2.99279">
        <ele>1359.171875</ele>
        <time>2012-06-07T18:23:28Z</time>
      </trkpt>
      <trkpt lat="44.63477" lon="2.99389">
        <ele>1367.19921875</ele>
        <time>2012-06-07T18:23:48Z</time>
      </trkpt>
      <trkpt lat="44.63372" lon="2.99427">
        <ele>1371.06640625</ele>
        <time>2012-06-07T18:24:08Z</time>
      </trkpt>
      <trkpt lat="44.63211" lon="2.99318">
        <ele>1360.94140625</ele>
        <time>2012-06-07T18:24:28Z</time>
      </trkpt>
      <trkpt lat="44.63078" lon="2.99211">
        <ele>1357.265625</ele>
        <time>2012-06-07T18:24:48Z</time>
      </trkpt>
      <trkpt lat="44.63036" lon="2.99135">
        <ele>1355.68359375</ele>
        <time>2012-06-07T18:25:08Z</time>
      </trkpt>
      <trkpt lat="44.63009" lon="2.99056">
        <ele>1353.97265625</ele>
        <time>2012-06-07T18:25:28Z</time>
      </trkpt>
      <trkpt lat="44.62954" lon="2.98976">
        <ele>1350.4453125</ele>
        <time>2012-06-07T18:25:48Z</time>
      </trkpt>
      <trkpt lat="44.62874" lon="2.98892">
        <ele>1347.7265625</ele>
        <time>2012-06-07T18:26:08Z</time>
      </trkpt>
      <trkpt lat="44.62699" lon="2.9878">
        <ele>1324.19921875</ele>
        <time>2012-06-07T18:26:28Z</time>
      </trkpt>
      <trkpt lat="44.62622" lon="2.98776">
        <ele>1314.84375</ele>
        <time>2012-06-07T18:26:48Z</time>
      </trkpt>
      <trkpt lat="44.6261" lon="2.98766">
        <ele>1313.62890625</ele>
        <time>2012-06-07T18:27:08Z</time>
      </trkpt>
      <trkpt lat="44.62584" lon="2.98699">
        <ele>1315.2109375</ele>
        <time>2012-06-07T18:27:28Z</time>
      </trkpt>
      <trkpt lat="44.62547" lon="2.98673">
        <ele>1313.5234375</ele>
        <time>2012-06-07T18:27:48Z</time>
      </trkpt>
      <trkpt lat="44.62481" lon="2.98691">
        <ele>1310.56640625</ele>
        <time>2012-06-07T18:28:08Z</time>
      </trkpt>
      <trkpt lat="44.62347" lon="2.98676">
        <ele>1312.48046875</ele>
        <time>2012-06-07T18:28:28Z</time>
      </trkpt>
      <trkpt lat="44.62237" lon="2.98689">
        <ele>1307.9765625</ele>
        <time>2012-06-07T18:28:48Z</time>
      </trkpt>
      <trkpt lat="44.62212" lon="2.9867">
        <ele>1307.9296875</ele>
        <time>2012-06-07T18:29:08Z</time>
      </trkpt>
      <trkpt lat="44.62177" lon="2.98608">
        <ele>1310.671875</ele>
        <time>2012-06-07T18:29:28Z</time>
      </trkpt>
      <trkpt lat="44.62143" lon="2.98417">
        <ele>1316.453125</ele>
        <time>2012-06-07T18:29:48Z</time>
      </trkpt>
      <trkpt lat="44.62097" lon="2.98348">
        <ele>1317.21484375</ele>
        <time>2012-06-07T18:30:08Z</time>
      </trkpt>
      <trkpt lat="44.62074" lon="2.98262">
        <ele>1320.62109375</ele>
        <time>2012-06-07T18:30:28Z</time>
      </trkpt>
      <trkpt lat="44.6199" lon="2.98162">
        <ele>1315.609375</ele>
        <time>2012-06-07T18:30:48Z</time>
      </trkpt>
      <trkpt lat="44.61853" lon="2.97658">
        <ele>1296.57421875</ele>
        <time>2012-06-07T18:31:08Z</time>
      </trkpt>
      <trkpt lat="44.61805" lon="2.97534">
        <ele>1289.58984375</ele>
        <time>2012-06-07T18:31:28Z</time>
      </trkpt>
      <trkpt lat="44.6178" lon="2.97508">
        <ele>1281.83203125</ele>
        <time>2012-06-07T18:31:48Z</time>
      </trkpt>
      <trkpt lat="44.6178" lon="2.97453">
        <ele>1275.21484375</ele>
        <time>2012-06-07T18:32:08Z</time>
      </trkpt>
      <trkpt lat="44.61807" lon="2.97371">
        <ele>1267.3125</ele>
        <time>2012-06-07T18:32:28Z</time>
      </trkpt>
      <trkpt lat="44.61847" lon="2.97283">
        <ele>1262.4453125</ele>
        <time>2012-06-07T18:32:48Z</time>
      </trkpt>
      <trkpt lat="44.61855" lon="2.97234">
        <ele>1258.0625</ele>
        <time>2012-06-07T18:33:08Z</time>
      </trkpt>
      <trkpt lat="44.61824" lon="2.97124">
        <ele>1249.5078125</ele>
        <time>2012-06-07T18:33:28Z</time>
      </trkpt>
      <trkpt lat="44.61797" lon="2.96961">
        <ele>1241.71484375</ele>
        <time>2012-06-07T18:33:48Z</time>
      </trkpt>
      <trkpt lat="44.61785" lon="2.9693">
        <ele>1240.98046875</ele>
        <time>2012-06-07T18:34:08Z</time>
      </trkpt>
      <trkpt lat="44.61773" lon="2.96859">
        <ele>1240.27734375</ele>
        <time>2012-06-07T18:34:28Z</time>
      </trkpt>
      <trkpt lat="44.61646" lon="2.96754">
        <ele>1232.14453125</ele>
        <time>2012-06-07T18:34:48Z</time>
      </trkpt>
      <trkpt lat="44.61567" lon="2.96671">
        <ele>1224.35546875</ele>
        <time>2012-06-07T18:35:08Z</time>
      </trkpt>
      <trkpt lat="44.61486" lon="2.96618">
        <ele>1210.80078125</ele>
        <time>2012-06-07T18:35:28Z</time>
      </trkpt>
      <trkpt lat="44.6139" lon="2.96503">
        <ele>1206.44921875</ele>
        <time>2012-06-07T18:35:48Z</time>
      </trkpt>
      <trkpt lat="44.61281" lon="2.96405">
        <ele>1206.89453125</ele>
        <time>2012-06-07T18:36:08Z</time>
      </trkpt>
      <trkpt lat="44.61052" lon="2.96273">
        <ele>1194.22265625</ele>
        <time>2012-06-07T18:36:28Z</time>
      </trkpt>
      <trkpt lat="44.61009" lon="2.96262">
        <ele>1193.08984375</ele>
        <time>2012-06-07T18:36:48Z</time>
      </trkpt>
      <trkpt lat="44.60973" lon="2.96127">
        <ele>1192.0703125</ele>
        <time>2012-06-07T18:37:08Z</time>
      </trkpt>
      <trkpt lat="44.60938" lon="2.96084">
        <ele>1193.296875</ele>
        <time>2012-06-07T18:37:28Z</time>
      </trkpt>
      <trkpt lat="44.60877" lon="2.96018">
        <ele>1198.6171875</ele>
        <time>2012-06-07T18:37:48Z</time>
      </trkpt>
      <trkpt lat="44.60832" lon="2.95902">
        <ele>1200.15625</ele>
        <time>2012-06-07T18:38:08Z</time>
      </trkpt>
      <trkpt lat="44.60806" lon="2.95847">
        <ele>1194.8671875</ele>
        <time>2012-06-07T18:38:28Z</time>
      </trkpt>
      <trkpt lat="44.60783" lon="2.9582">
        <ele>1191.078125</ele>
        <time>2012-06-07T18:38:48Z</time>
      </trkpt>
      <trkpt lat="44.60759" lon="2.95744">
        <ele>1182.82421875</ele>
        <time>2012-06-07T18:39:08Z</time>
      </trkpt>
      <trkpt lat="44.60674" lon="2.95716">
        <ele>1179.15234375</ele>
        <time>2012-06-07T18:39:28Z</time>
      </trkpt>
      <trkpt lat="44.60579" lon="2.9565">
        <ele>1159.296875</ele>
        <time>2012-06-07T18:39:48Z</time>
      </trkpt>
      <trkpt lat="44.60553" lon="2.95625">
        <ele>1152.35546875</ele>
        <time>2012-06-07T18:40:08Z</time>
      </trkpt>
      <trkpt lat="44.6055" lon="2.95594">
        <ele>1152.91796875</ele>
        <time>2012-06-07T18:40:28Z</time>
      </trkpt>
      <trkpt lat="44.60558" lon="2.95565">
        <ele>1155.58203125</ele>
        <time>2012-06-07T18:40:48Z</time>
      </trkpt>
      <trkpt lat="44.60552" lon="2.95529">
        <ele>1155.015625</ele>
        <time>2012-06-07T18:41:08Z</time>
      </trkpt>
      <trkpt lat="44.60528" lon="2.95524">
        <ele>1152.06640625</ele>
        <time>2012-06-07T18:41:28Z</time>
      </trkpt>
      <trkpt lat="44.60457" lon="2.95487">
        <ele>1142.46484375</ele>
        <time>2012-06-07T18:41:48Z</time>
      </trkpt>
      <trkpt lat="44.6045" lon="2.95457">
        <ele>1135.734375</ele>
        <time>2012-06-07T18:42:08Z</time>
      </trkpt>
      <trkpt lat="44.60418" lon="2.95479">
        <ele>1132.67578125</ele>
        <time>2012-06-07T18:42:28Z</time>
      </trkpt>
      <trkpt lat="44.60455" lon="2.95547">
        <ele>1139.52734375</ele>
        <time>2012-06-07T18:42:48Z</time>
      </trkpt>
      <trkpt lat="44.6041" lon="2.95569">
        <ele>1127.34375</ele>
        <time>2012-06-07T18:43:08Z</time>
      </trkpt>
      <trkpt lat="44.60353" lon="2.95543">
        <ele>1114.16796875</ele>
        <time>2012-06-07T18:43:28Z</time>
      </trkpt>
      <trkpt lat="44.6032" lon="2.95492">
        <ele>1110.296875</ele>
        <time>2012-06-07T18:43:48Z</time>
      </trkpt>
      <trkpt lat="44.60286" lon="2.95395">
        <ele>1119.66015625</ele>
        <time>2012-06-07T18:44:08Z</time>
      </trkpt>
      <trkpt lat="44.60292" lon="2.95371">
        <ele>1121.05078125</ele>
        <time>2012-06-07T18:44:28Z</time>
      </trkpt>
      <trkpt lat="44.6027" lon="2.95281">
        <ele>1109.6328125</ele>
        <time>2012-06-07T18:44:48Z</time>
      </trkpt>
      <trkpt lat="44.60255" lon="2.9525">
        <ele>1101.375</ele>
        <time>2012-06-07T18:45:08Z</time>
      </trkpt>
      <trkpt lat="44.60239" lon="2.95245">
        <ele>1098.03125</ele>
        <time>2012-06-07T18:45:28Z</time>
      </trkpt>
      <trkpt lat="44.60228" lon="2.95228">
        <ele>1093.828125</ele>
        <time>2012-06-07T18:45:48Z</time>
      </trkpt>
      <trkpt lat="44.6026" lon="2.95186">
        <ele>1094.04296875</ele>
        <time>2012-06-07T18:46:08Z</time>
      </trkpt>
      <trkpt lat="44.60257" lon="2.95173">
        <ele>1093.078125</ele>
        <time>2012-06-07T18:46:28Z</time>
      </trkpt>
      <trkpt lat="44.60236" lon="2.95179">
        <ele>1090.1328125</ele>
        <time>2012-06-07T18:46:48Z</time>
      </trkpt>
      <trkpt lat="44.60205" lon="2.9522">
        <ele>1088.29296875</ele>
        <time>2012-06-07T18:47:08Z</time>
      </trkpt>
      <trkpt lat="44.60162" lon="2.95259">
        <ele>1083.07421875</ele>
        <time>2012-06-07T18:47:28Z</time>
      </trkpt>
      <trkpt lat="44.60173" lon="2.95198">
        <ele>1080.4140625</ele>
        <time>2012-06-07T18:47:48Z</time>
      </trkpt>
      <trkpt lat="44.60157" lon="2.95183">
        <ele>1076.484375</ele>
        <time>2012-06-07T18:48:08Z</time>
      </trkpt>
      <trkpt lat="44.60131" lon="2.9518">
        <ele>1070.328125</ele>
        <time>2012-06-07T18:48:28Z</time>
      </trkpt>
      <trkpt lat="44.60129" lon="2.95153">
        <ele>1068.19140625</ele>
        <time>2012-06-07T18:48:48Z</time>
      </trkpt>
      <trkpt lat="44.60137" lon="2.9513">
        <ele>1069.96875</ele>
        <time>2012-06-07T18:49:08Z</time>
      </trkpt>
      <trkpt lat="44.60098" lon="2.95025">
        <ele>1058.94921875</ele>
        <time>2012-06-07T18:49:28Z</time>
      </trkpt>
      <trkpt lat="44.59979" lon="2.94927">
        <ele>1043.22265625</ele>
        <time>2012-06-07T18:49:48Z</time>
      </trkpt>
      <trkpt lat="44.59995" lon="2.94872">
        <ele>1042.265625</ele>
        <time>2012-06-07T18:50:08Z</time>
      </trkpt>
      <trkpt lat="44.60068" lon="2.94828">
        <ele>1028.2265625</ele>
        <time>2012-06-07T18:50:28Z</time>
      </trkpt>
      <trkpt lat="44.60114" lon="2.94825">
        <ele>1025.86328125</ele>
        <time>2012-06-07T18:50:48Z</time>
      </trkpt>
      <trkpt lat="44.60156" lon="2.94794">
        <ele>1016.58203125</ele>
        <time>2012-06-07T18:51:08Z</time>
      </trkpt>
      <trkpt lat="44.60161" lon="2.94765">
        <ele>1015.10546875</ele>
        <time>2012-06-07T18:51:28Z</time>
      </trkpt>
      <trkpt lat="44.60097" lon="2.94714">
        <ele>1002.1640625</ele>
        <time>2012-06-07T18:51:48Z</time>
      </trkpt>
      <trkpt lat="44.60037" lon="2.94626">
        <ele>994.57421875</ele>
        <time>2012-06-07T18:52:08Z</time>
      </trkpt>
      <trkpt lat="44.60012" lon="2.94562">
        <ele>995.2109375</ele>
        <time>2012-06-07T18:52:28Z</time>
      </trkpt>
      <trkpt lat="44.59938" lon="2.94469">
        <ele>988.94140625</ele>
        <time>2012-06-07T18:52:48Z</time>
      </trkpt>
      <trkpt lat="44.59897" lon="2.94433">
        <ele>981.109375</ele>
        <time>2012-06-07T18:53:08Z</time>
      </trkpt>
      <trkpt lat="44.59821" lon="2.94333">
        <ele>968.15234375</ele>
        <time>2012-06-07T18:53:28Z</time>
      </trkpt>
      <trkpt lat="44.59803" lon="2.94273">
        <ele>967.90625</ele>
        <time>2012-06-07T18:53:48Z</time>
      </trkpt>
      <trkpt lat="44.59802" lon="2.94212">
        <ele>972.99609375</ele>
        <time>2012-06-07T18:54:08Z</time>
      </trkpt>
      <trkpt lat="44.59792" lon="2.94196">
        <ele>971.890625</ele>
        <time>2012-06-07T18:54:28Z</time>
      </trkpt>
      <trkpt lat="44.59762" lon="2.94099">
        <ele>963.8515625</ele>
        <time>2012-06-07T18:54:48Z</time>
      </trkpt>
      <trkpt lat="44.59737" lon="2.94077">
        <ele>956.69921875</ele>
        <time>2012-06-07T18:55:08Z</time>
      </trkpt>
      <trkpt lat="44.5971" lon="2.94013">
        <ele>945.64453125</ele>
        <time>2012-06-07T18:55:28Z</time>
      </trkpt>
      <trkpt lat="44.59601" lon="2.93904">
        <ele>908.6953125</ele>
        <time>2012-06-07T18:55:48Z</time>
      </trkpt>
      <trkpt lat="44.59583" lon="2.93833">
        <ele>904.00390625</ele>
        <time>2012-06-07T18:56:08Z</time>
      </trkpt>
      <trkpt lat="44.59594" lon="2.9376">
        <ele>902.8125</ele>
        <time>2012-06-07T18:56:28Z</time>
      </trkpt>
      <trkpt lat="44.59618" lon="2.9374">
        <ele>906.57421875</ele>
        <time>2012-06-07T18:56:48Z</time>
      </trkpt>
      <trkpt lat="44.59639" lon="2.93741">
        <ele>911.1484375</ele>
        <time>2012-06-07T18:57:08Z</time>
      </trkpt>
      <trkpt lat="44.59635" lon="2.93718">
        <ele>910.51171875</ele>
        <time>2012-06-07T18:57:28Z</time>
      </trkpt>
      <trkpt lat="44.59617" lon="2.93711">
        <ele>906.26953125</ele>
        <time>2012-06-07T18:57:48Z</time>
      </trkpt>
      <trkpt lat="44.5961" lon="2.93682">
        <ele>907.16015625</ele>
        <time>2012-06-07T18:58:08Z</time>
      </trkpt>
      <trkpt lat="44.59567" lon="2.93632">
        <ele>895.75</ele>
        <time>2012-06-07T18:58:28Z</time>
      </trkpt>
      <trkpt lat="44.595" lon="2.93512">
        <ele>883.42578125</ele>
        <time>2012-06-07T18:58:48Z</time>
      </trkpt>
      <trkpt lat="44.59487" lon="2.93444">
        <ele>885.609375</ele>
        <time>2012-06-07T18:59:08Z</time>
      </trkpt>
      <trkpt lat="44.59427" lon="2.9333">
        <ele>870.58984375</ele>
        <time>2012-06-07T18:59:28Z</time>
      </trkpt>
      <trkpt lat="44.59341" lon="2.93115">
        <ele>841.90234375</ele>
        <time>2012-06-07T18:59:48Z</time>
      </trkpt>
      <trkpt lat="44.5932" lon="2.92818">
        <ele>839.4453125</ele>
        <time>2012-06-07T19:00:08Z</time>
      </trkpt>
      <trkpt lat="44.59287" lon="2.92729">
        <ele>830.73046875</ele>
        <time>2012-06-07T19:00:28Z</time>
      </trkpt>
      <trkpt lat="44.59241" lon="2.92507">
        <ele>823.40625</ele>
        <time>2012-06-07T19:00:48Z</time>
      </trkpt>
      <trkpt lat="44.5916" lon="2.92402">
        <ele>806.390625</ele>
        <time>2012-06-07T19:01:08Z</time>
      </trkpt>
      <trkpt lat="44.59136" lon="2.92388">
        <ele>803.70703125</ele>
        <time>2012-06-07T19:01:28Z</time>
      </trkpt>
      <trkpt lat="44.59117" lon="2.92345">
        <ele>803.26171875</ele>
        <time>2012-06-07T19:01:48Z</time>
      </trkpt>
      <trkpt lat="44.59095" lon="2.92165">
        <ele>811.37890625</ele>
        <time>2012-06-07T19:02:08Z</time>
      </trkpt>
    </trkseg>
  </trk>
</gpx>